createdAt,value
2023-01-28T00:00:34.745Z,98366.25
2023-01-28T00:03:01.287Z,98375.69
2023-01-28T00:05:29.757Z,98383.00
2023-01-28T00:07:57.917Z,98377.84
2023-01-28T00:10:24.459Z,98374.25
2023-01-28T00:12:50.967Z,98368.06
2023-01-28T00:15:17.513Z,98380.38
2023-01-28T00:17:44.020Z,98377.53
2023-01-28T00:20:10.945Z,98380.53
2023-01-28T00:22:37.769Z,98376.97
2023-01-28T00:25:04.458Z,98373.34
2023-01-28T00:27:31.028Z,98377.91
2023-01-28T00:29:57.608Z,98381.09
2023-01-28T00:32:24.079Z,98356.00
2023-01-28T00:34:50.576Z,98384.47
2023-01-28T00:37:17.155Z,98385.75
2023-01-28T00:39:43.617Z,98392.09
2023-01-28T00:42:10.077Z,98396.31
2023-01-28T00:44:36.746Z,98398.94
2023-01-28T00:47:03.541Z,98391.25
2023-01-28T00:49:31.165Z,98380.78
2023-01-28T00:51:57.704Z,98387.59
2023-01-28T00:54:24.169Z,98394.34
2023-01-28T00:56:50.667Z,98373.38
2023-01-28T00:59:17.220Z,98391.91
2023-01-28T01:01:44.015Z,98381.72
2023-01-28T01:04:10.557Z,98399.00
2023-01-28T01:06:38.634Z,98397.22
2023-01-28T01:09:08.310Z,98401.59
2023-01-28T01:11:35.058Z,98402.19
2023-01-28T01:14:04.041Z,98395.28
2023-01-28T01:16:32.246Z,98390.97
2023-01-28T01:18:59.245Z,98394.28
2023-01-28T01:21:27.306Z,98398.47
2023-01-28T01:23:54.691Z,98389.31
2023-01-28T01:26:21.270Z,98401.00
2023-01-28T01:28:48.751Z,98402.03
2023-01-28T01:31:17.582Z,98391.16
2023-01-28T01:33:45.164Z,98403.69
2023-01-28T01:36:12.551Z,98402.38
2023-01-28T01:38:39.052Z,98405.56
2023-01-28T01:41:05.555Z,98412.31
2023-01-28T01:43:53.375Z,98408.84
2023-01-28T01:46:33.137Z,98411.72
2023-01-28T01:49:21.763Z,98418.06
2023-01-28T01:51:49.721Z,98417.03
2023-01-28T01:54:16.628Z,98413.00
2023-01-28T01:56:43.851Z,98414.19
2023-01-28T01:59:12.233Z,98408.28
2023-01-28T02:01:38.642Z,98420.25
2023-01-28T02:04:26.576Z,98425.34
2023-01-28T02:06:53.055Z,98415.03
2023-01-28T02:09:34.420Z,98419.91
2023-01-28T02:12:21.749Z,98420.75
2023-01-28T02:14:50.292Z,98411.13
2023-01-28T02:17:16.715Z,98414.94
2023-01-28T02:19:47.030Z,98429.09
2023-01-28T02:22:38.772Z,98415.03
2023-01-28T02:25:26.449Z,98426.50
2023-01-28T02:28:07.060Z,98418.72
2023-01-28T02:30:35.735Z,98424.78
2023-01-28T02:33:08.403Z,98431.63
2023-01-28T02:35:43.242Z,98435.19
2023-01-28T02:38:19.520Z,98437.44
2023-01-28T02:41:03.215Z,98436.13
2023-01-28T02:43:39.775Z,98440.47
2023-01-28T02:46:45.137Z,98440.47
2023-01-28T02:49:24.518Z,98435.25
2023-01-28T02:51:50.973Z,98444.97
2023-01-28T02:54:23.551Z,98450.94
2023-01-28T02:57:30.441Z,98448.06
2023-01-28T03:00:26.073Z,98445.19
2023-01-28T03:03:17.327Z,98447.06
2023-01-28T03:06:03.231Z,98428.84
2023-01-28T03:09:22.561Z,98438.63
2023-01-28T03:12:31.768Z,98443.09
2023-01-28T03:15:29.745Z,98448.41
2023-01-28T03:18:41.077Z,98442.34
2023-01-28T03:21:32.250Z,98442.34
2023-01-28T03:24:21.864Z,98442.34
2023-01-28T03:27:33.086Z,98437.81
2023-01-28T03:30:20.082Z,98449.44
2023-01-28T03:33:05.032Z,98448.16
2023-01-28T03:35:51.531Z,98449.25
2023-01-28T03:38:18.614Z,98453.16
2023-01-28T03:40:57.976Z,98454.31
2023-01-28T03:43:24.601Z,98439.16
2023-01-28T03:45:52.539Z,98436.47
2023-01-28T03:48:19.832Z,98458.19
2023-01-28T03:50:46.752Z,98464.78
2023-01-28T03:53:16.322Z,98466.63
2023-01-28T03:55:43.349Z,98469.69
2023-01-28T03:58:10.647Z,98455.19
2023-01-28T04:00:43.447Z,98466.97
2023-01-28T04:03:16.116Z,98466.63
2023-01-28T04:06:06.680Z,98466.63
2023-01-28T04:08:33.547Z,98465.78
2023-01-28T04:11:15.458Z,98467.16
2023-01-28T04:13:42.679Z,98463.78
2023-01-28T04:16:09.195Z,98463.19
2023-01-28T04:18:35.704Z,98463.44
2023-01-28T04:21:02.247Z,98454.38
2023-01-28T04:23:31.326Z,98471.38
2023-01-28T04:25:57.865Z,98470.69
2023-01-28T04:28:24.473Z,98474.34
2023-01-28T04:30:52.035Z,98469.28
2023-01-28T04:33:18.588Z,98468.53
2023-01-28T04:35:45.257Z,98473.91
2023-01-28T04:38:11.750Z,98484.28
2023-01-28T04:40:38.252Z,98477.47
2023-01-28T04:43:04.825Z,98493.13
2023-01-28T04:45:31.317Z,98481.00
2023-01-28T04:47:57.812Z,98486.22
2023-01-28T04:50:24.348Z,98492.31
2023-01-28T04:52:50.851Z,98493.00
2023-01-28T04:55:17.675Z,98494.56
2023-01-28T04:57:44.371Z,98479.13
2023-01-28T05:00:11.348Z,98502.25
2023-01-28T05:02:37.826Z,98503.44
2023-01-28T05:05:06.122Z,98497.53
2023-01-28T05:07:32.622Z,98490.88
2023-01-28T05:09:59.116Z,98491.78
2023-01-28T05:12:25.621Z,98469.88
2023-01-28T05:14:52.122Z,98488.25
2023-01-28T05:17:18.641Z,98488.06
2023-01-28T05:19:46.358Z,98489.25
2023-01-28T05:22:12.843Z,98496.19
2023-01-28T05:24:39.343Z,98496.59
2023-01-28T05:27:07.509Z,98502.75
2023-01-28T05:29:34.008Z,98495.84
2023-01-28T05:32:01.869Z,98493.63
2023-01-28T05:34:28.355Z,98496.09
2023-01-28T05:36:54.815Z,98495.94
2023-01-28T05:39:21.297Z,98493.47
2023-01-28T05:41:47.825Z,98488.59
2023-01-28T05:44:14.308Z,98488.25
2023-01-28T05:46:45.345Z,98493.47
2023-01-28T05:49:13.752Z,98496.84
2023-01-28T05:51:40.417Z,98486.22
2023-01-28T05:54:07.472Z,98489.94
2023-01-28T05:56:35.107Z,98496.34
2023-01-28T05:59:01.572Z,98500.81
2023-01-28T06:01:28.106Z,98503.59
2023-01-28T06:03:54.708Z,98503.44
2023-01-28T06:06:21.270Z,98502.06
2023-01-28T06:08:47.742Z,98506.88
2023-01-28T06:11:14.784Z,98514.06
2023-01-28T06:13:41.744Z,98510.50
2023-01-28T06:16:08.380Z,98514.97
2023-01-28T06:18:35.017Z,98484.88
2023-01-28T06:21:01.563Z,98517.59
2023-01-28T06:23:28.080Z,98519.13
2023-01-28T06:25:55.826Z,98527.81
2023-01-28T06:28:22.503Z,98534.81
2023-01-28T06:30:49.638Z,98541.03
2023-01-28T06:33:16.214Z,98535.16
2023-01-28T06:35:42.837Z,98547.09
2023-01-28T06:38:09.340Z,98541.38
2023-01-28T06:40:35.915Z,98539.00
2023-01-28T06:43:02.444Z,98550.66
2023-01-28T06:45:29.055Z,98554.78
2023-01-28T06:47:55.913Z,98561.66
2023-01-28T06:50:22.442Z,98548.56
2023-01-28T06:52:48.934Z,98568.13
2023-01-28T06:55:15.753Z,98547.69
2023-01-28T06:57:42.274Z,98570.41
2023-01-28T07:00:10.544Z,98556.91
2023-01-28T07:02:37.570Z,98566.88
2023-01-28T07:05:04.764Z,98573.63
2023-01-28T07:07:31.714Z,98568.06
2023-01-28T07:09:58.319Z,98584.59
2023-01-28T07:12:24.966Z,98583.50
2023-01-28T07:14:51.446Z,98589.63
2023-01-28T07:17:18.042Z,98600.09
2023-01-28T07:19:44.517Z,98593.19
2023-01-28T07:22:11.212Z,98595.81
2023-01-28T07:24:37.752Z,98595.47
2023-01-28T07:27:04.713Z,98598.75
2023-01-28T07:29:31.325Z,98608.53
2023-01-28T07:31:57.972Z,98598.06
2023-01-28T07:34:24.870Z,98597.91
2023-01-28T07:36:51.336Z,98604.81
2023-01-28T07:39:17.851Z,98588.63
2023-01-28T07:41:44.375Z,98605.41
2023-01-28T07:44:11.092Z,98599.19
2023-01-28T07:46:37.791Z,98603.84
2023-01-28T07:49:04.292Z,98600.78
2023-01-28T07:51:30.762Z,98593.03
2023-01-28T07:53:57.401Z,98599.09
2023-01-28T07:56:23.994Z,98603.38
2023-01-28T07:58:50.683Z,98603.66
2023-01-28T08:01:19.230Z,98606.84
2023-01-28T08:03:45.743Z,98624.91
2023-01-28T08:06:14.310Z,98622.03
2023-01-28T08:08:40.888Z,98619.16
2023-01-28T08:11:11.614Z,98627.97
2023-01-28T08:13:38.275Z,98631.78
2023-01-28T08:16:05.191Z,98624.91
2023-01-28T08:18:31.753Z,98621.19
2023-01-28T08:20:58.758Z,98624.59
2023-01-28T08:23:26.942Z,98629.47
2023-01-28T08:25:53.707Z,98635.97
2023-01-28T08:28:20.286Z,98632.16
2023-01-28T08:30:47.052Z,98620.09
2023-01-28T08:33:14.335Z,98610.56
2023-01-28T08:35:41.012Z,98634.22
2023-01-28T08:38:07.632Z,98630.22
2023-01-28T08:40:34.258Z,98630.41
2023-01-28T08:43:00.755Z,98637.06
2023-01-28T08:45:28.162Z,98635.22
2023-01-28T08:47:58.250Z,98638.50
2023-01-28T08:50:26.102Z,98626.94
2023-01-28T08:52:56.722Z,98635.53
2023-01-28T08:55:23.747Z,98626.25
2023-01-28T08:57:50.212Z,98640.34
2023-01-28T09:00:17.389Z,98635.63
2023-01-28T09:02:43.984Z,98636.88
2023-01-28T09:05:10.979Z,98638.56
2023-01-28T09:07:38.066Z,98632.84
2023-01-28T09:10:05.186Z,98634.78
2023-01-28T09:12:32.097Z,98639.31
2023-01-28T09:14:58.722Z,98635.03
2023-01-28T09:17:25.206Z,98638.59
2023-01-28T09:19:51.688Z,98632.47
2023-01-28T09:22:18.268Z,98644.03
2023-01-28T09:24:44.738Z,98629.28
2023-01-28T09:27:11.219Z,98642.25
2023-01-28T09:29:38.781Z,98648.50
2023-01-28T09:32:07.064Z,98632.47
2023-01-28T09:34:33.906Z,98631.31
2023-01-28T09:37:00.771Z,98646.38
2023-01-28T09:39:28.480Z,98660.50
2023-01-28T09:42:23.964Z,98657.16
2023-01-28T09:45:08.964Z,98653.69
2023-01-28T09:47:36.189Z,98656.53
2023-01-28T09:50:08.122Z,98654.69
2023-01-28T09:52:36.174Z,98655.72
2023-01-28T09:55:05.368Z,98662.19
2023-01-28T09:57:38.035Z,98657.06
2023-01-28T10:00:15.729Z,98660.63
2023-01-28T10:02:51.309Z,98654.75
2023-01-28T10:05:23.304Z,98654.22
2023-01-28T10:07:49.673Z,98661.13
2023-01-28T10:10:22.599Z,98654.06
2023-01-28T10:13:01.594Z,98660.56
2023-01-28T10:15:28.022Z,98658.63
2023-01-28T10:18:14.567Z,98663.13
2023-01-28T10:20:49.215Z,98657.94
2023-01-28T10:23:17.843Z,98664.53
2023-01-28T10:25:48.315Z,98666.03
2023-01-28T10:28:25.751Z,98669.25
2023-01-28T10:30:52.468Z,98659.47
2023-01-28T10:33:18.891Z,98671.81
2023-01-28T10:35:45.409Z,98669.94
2023-01-28T10:38:14.727Z,98661.91
2023-01-28T10:40:44.407Z,98666.91
2023-01-28T10:43:11.410Z,98670.28
2023-01-28T10:45:41.366Z,98663.84
2023-01-28T10:48:26.699Z,98663.63
2023-01-28T10:51:02.948Z,98663.19
2023-01-28T10:53:41.294Z,98663.84
2023-01-28T10:56:10.423Z,98661.00
2023-01-28T10:58:47.487Z,98659.25
2023-01-28T11:01:14.417Z,98658.34
2023-01-28T11:03:41.786Z,98655.91
2023-01-28T11:06:18.392Z,98652.75
2023-01-28T11:08:46.970Z,98653.50
2023-01-28T11:11:15.086Z,98647.47
2023-01-28T11:13:50.338Z,98654.28
2023-01-28T11:16:18.331Z,98646.78
2023-01-28T11:18:53.480Z,98650.75
2023-01-28T11:21:26.948Z,98650.31
2023-01-28T11:23:59.342Z,98661.13
2023-01-28T11:26:49.658Z,98659.47
2023-01-28T11:29:31.351Z,98662.28
2023-01-28T11:31:59.761Z,98653.81
2023-01-28T11:34:31.147Z,98654.00
2023-01-28T11:37:05.953Z,98655.22
2023-01-28T11:39:33.037Z,98652.78
2023-01-28T11:42:13.414Z,98653.50
2023-01-28T11:44:40.896Z,98645.84
2023-01-28T11:47:17.549Z,98656.41
2023-01-28T11:49:48.370Z,98655.22
2023-01-28T11:52:23.395Z,98639.13
2023-01-28T11:55:02.360Z,98645.56
2023-01-28T11:57:32.116Z,98642.16
2023-01-28T12:00:18.438Z,98637.44
2023-01-28T12:02:54.503Z,98636.69
2023-01-28T12:05:27.755Z,98634.84
2023-01-28T12:08:25.483Z,98628.47
2023-01-28T12:11:04.280Z,98626.69
2023-01-28T12:13:46.220Z,98633.13
2023-01-28T12:16:38.601Z,98630.53
2023-01-28T12:19:10.588Z,98636.53
2023-01-28T12:22:02.940Z,98632.97
2023-01-28T12:24:42.761Z,98640.44
2023-01-28T12:27:57.984Z,98624.00
2023-01-28T12:31:02.609Z,98624.75
2023-01-28T12:33:48.709Z,98628.69
2023-01-28T12:36:34.300Z,98633.00
2023-01-28T12:39:21.447Z,98624.47
2023-01-28T12:41:50.593Z,98621.56
2023-01-28T12:44:23.624Z,98620.25
2023-01-28T12:46:55.635Z,98631.66
2023-01-28T12:49:26.291Z,98609.75
2023-01-28T12:51:55.736Z,98620.59
2023-01-28T12:54:38.514Z,98615.44
2023-01-28T12:57:05.050Z,98636.59
2023-01-28T12:59:47.808Z,98626.44
2023-01-28T13:02:18.480Z,98632.06
2023-01-28T13:05:00.191Z,98631.78
2023-01-28T13:07:38.699Z,98637.97
2023-01-28T13:10:25.575Z,98632.00
2023-01-28T13:12:52.241Z,98635.38
2023-01-28T13:15:18.799Z,98635.72
2023-01-28T13:17:59.750Z,98632.00
2023-01-28T13:20:35.385Z,98629.47
2023-01-28T13:23:03.192Z,98637.28
2023-01-28T13:25:32.185Z,98638.47
2023-01-28T13:28:00.455Z,98636.34
2023-01-28T13:30:47.353Z,98624.44
2023-01-28T13:33:31.663Z,98636.16
2023-01-28T13:35:58.242Z,98644.97
2023-01-28T13:38:24.784Z,98629.22
2023-01-28T13:41:01.445Z,98623.03
2023-01-28T13:43:33.870Z,98637.09
2023-01-28T13:46:05.395Z,98642.72
2023-01-28T13:48:35.167Z,98645.50
2023-01-28T13:51:02.010Z,98663.97
2023-01-28T13:53:45.851Z,98648.22
2023-01-28T13:56:22.971Z,98649.59
2023-01-28T13:59:17.493Z,98663.44
2023-01-28T14:02:38.364Z,98664.16
2023-01-28T14:05:42.157Z,98668.88
2023-01-28T14:08:38.629Z,98667.16
2023-01-28T14:11:23.309Z,98679.22
2023-01-28T14:14:03.514Z,98660.50
2023-01-28T14:17:01.217Z,98676.50
2023-01-28T14:19:30.017Z,98675.75
2023-01-28T14:21:56.599Z,98666.22
2023-01-28T14:24:23.613Z,98686.81
2023-01-28T14:27:08.771Z,98688.50
2023-01-28T14:29:44.219Z,98688.69
2023-01-28T14:32:21.847Z,98669.19
2023-01-28T14:34:48.357Z,98671.19
2023-01-28T14:37:16.651Z,98681.22
2023-01-28T14:39:52.479Z,98684.88
2023-01-28T14:42:26.740Z,98687.13
2023-01-28T14:45:11.874Z,98691.44
2023-01-28T14:47:51.160Z,98694.38
2023-01-28T14:50:41.690Z,98694.38
2023-01-28T14:53:27.687Z,98685.63
2023-01-28T14:56:03.605Z,98689.84
2023-01-28T14:58:46.995Z,98688.13
2023-01-28T15:01:27.564Z,98700.34
2023-01-28T15:03:54.280Z,98696.34
2023-01-28T15:06:24.119Z,98707.25
2023-01-28T15:08:51.694Z,98701.91
2023-01-28T15:11:20.722Z,98705.06
2023-01-28T15:13:48.468Z,98702.00
2023-01-28T15:16:19.625Z,98710.47
2023-01-28T15:18:46.173Z,98715.69
2023-01-28T15:21:12.642Z,98722.97
2023-01-28T15:23:43.032Z,98719.94
2023-01-28T15:26:20.061Z,98723.81
2023-01-28T15:28:47.518Z,98729.91
2023-01-28T15:31:23.550Z,98731.78
2023-01-28T15:34:03.595Z,98720.84
2023-01-28T15:36:30.754Z,98721.88
2023-01-28T15:38:57.420Z,98733.81
2023-01-28T15:41:27.441Z,98728.75
2023-01-28T15:43:53.942Z,98731.47
2023-01-28T15:46:20.478Z,98745.56
2023-01-28T15:48:49.450Z,98732.66
2023-01-28T15:51:34.224Z,98750.06
2023-01-28T15:54:05.636Z,98754.53
2023-01-28T15:56:32.281Z,98741.78
2023-01-28T15:59:24.609Z,98762.22
2023-01-28T16:01:51.157Z,98747.00
2023-01-28T16:04:28.058Z,98745.16
2023-01-28T16:06:55.129Z,98755.47
2023-01-28T16:09:31.913Z,98755.09
2023-01-28T16:12:08.901Z,98764.00
2023-01-28T16:14:43.231Z,98752.25
2023-01-28T16:17:09.720Z,98760.53
2023-01-28T16:19:41.082Z,98761.47
2023-01-28T16:22:07.865Z,98767.72
2023-01-28T16:24:37.711Z,98764.16
2023-01-28T16:27:07.069Z,98778.97
2023-01-28T16:29:34.450Z,98777.84
2023-01-28T16:32:01.173Z,98781.50
2023-01-28T16:34:27.875Z,98780.81
2023-01-28T16:37:01.648Z,98785.81
2023-01-28T16:39:28.156Z,98790.78
2023-01-28T16:41:56.832Z,98791.63
2023-01-28T16:44:23.405Z,98788.09
2023-01-28T16:46:49.932Z,98806.66
2023-01-28T16:49:16.487Z,98809.53
2023-01-28T16:51:45.806Z,98811.41
2023-01-28T16:54:13.588Z,98801.44
2023-01-28T16:56:47.351Z,98806.75
2023-01-28T16:59:15.317Z,98813.00
2023-01-28T17:01:45.368Z,98806.19
2023-01-28T17:04:13.975Z,98802.38
2023-01-28T17:06:44.670Z,98799.91
2023-01-28T17:09:12.694Z,98801.63
2023-01-28T17:11:42.022Z,98808.69
2023-01-28T17:14:09.809Z,98801.28
2023-01-28T17:16:36.463Z,98803.81
2023-01-28T17:19:03.321Z,98809.78
2023-01-28T17:21:30.259Z,98805.47
2023-01-28T17:23:58.361Z,98807.34
2023-01-28T17:26:25.851Z,98783.69
2023-01-28T17:28:53.405Z,98811.66
2023-01-28T17:31:20.116Z,98816.31
2023-01-28T17:33:46.771Z,98805.97
2023-01-28T17:36:13.828Z,98809.69
2023-01-28T17:38:40.409Z,98787.53
2023-01-28T17:41:08.318Z,98807.25
2023-01-28T17:43:34.863Z,98826.78
2023-01-28T17:46:01.617Z,98806.47
2023-01-28T17:48:29.517Z,98825.09
2023-01-28T17:50:57.104Z,98820.00
2023-01-28T17:53:23.592Z,98833.84
2023-01-28T17:55:50.105Z,98826.94
2023-01-28T17:58:16.665Z,98835.72
2023-01-28T18:00:43.246Z,98839.59
2023-01-28T18:03:13.407Z,98836.56
2023-01-28T18:05:40.316Z,98834.53
2023-01-28T18:08:07.299Z,98841.63
2023-01-28T18:10:33.848Z,98832.84
2023-01-28T18:13:00.380Z,98834.59
2023-01-28T18:15:28.266Z,98842.53
2023-01-28T18:17:55.105Z,98843.13
2023-01-28T18:20:21.652Z,98841.44
2023-01-28T18:22:48.272Z,98834.19
2023-01-28T18:25:15.773Z,98843.13
2023-01-28T18:27:42.524Z,98847.47
2023-01-28T18:30:09.710Z,98846.53
2023-01-28T18:32:36.248Z,98849.47
2023-01-28T18:35:03.006Z,98842.53
2023-01-28T18:37:29.592Z,98834.91
2023-01-28T18:39:56.069Z,98838.06
2023-01-28T18:42:22.617Z,98839.91
2023-01-28T18:44:49.090Z,98830.97
2023-01-28T18:47:15.574Z,98825.13
2023-01-28T18:49:42.441Z,98829.28
2023-01-28T18:52:08.993Z,98815.75
2023-01-28T18:54:35.733Z,98823.13
2023-01-28T18:57:02.246Z,98828.28
2023-01-28T18:59:28.779Z,98824.03
2023-01-28T19:01:55.299Z,98798.19
2023-01-28T19:04:22.289Z,98831.16
2023-01-28T19:06:48.818Z,98820.81
2023-01-28T19:09:15.815Z,98819.28
2023-01-28T19:11:42.810Z,98830.13
2023-01-28T19:14:10.293Z,98841.28
2023-01-28T19:16:37.276Z,98843.31
2023-01-28T19:19:04.319Z,98842.63
2023-01-28T19:21:31.077Z,98844.53
2023-01-28T19:23:59.268Z,98857.72
2023-01-28T19:26:26.028Z,98847.00
2023-01-28T19:28:52.639Z,98843.63
2023-01-28T19:31:20.636Z,98831.09
2023-01-28T19:33:48.208Z,98840.09
2023-01-28T19:36:14.799Z,98839.25
2023-01-28T19:38:41.325Z,98856.97
2023-01-28T19:41:07.938Z,98856.41
2023-01-28T19:43:34.635Z,98857.97
2023-01-28T19:46:02.864Z,98865.81
2023-01-28T19:48:29.561Z,98871.97
2023-01-28T19:50:56.348Z,98871.97
2023-01-28T19:53:23.001Z,98878.91
2023-01-28T19:55:52.026Z,98870.53
2023-01-28T19:58:18.922Z,98875.84
2023-01-28T20:00:45.473Z,98872.13
2023-01-28T20:03:12.825Z,98874.13
2023-01-28T20:05:39.355Z,98888.63
2023-01-28T20:08:05.914Z,98891.69
2023-01-28T20:10:32.544Z,98874.78
2023-01-28T20:12:59.025Z,98879.53
2023-01-28T20:15:25.562Z,98882.06
2023-01-28T20:17:52.125Z,98886.31
2023-01-28T20:20:18.727Z,98880.91
2023-01-28T20:22:45.299Z,98883.75
2023-01-28T20:25:11.895Z,98885.22
2023-01-28T20:27:38.369Z,98886.94
2023-01-28T20:30:05.283Z,98887.41
2023-01-28T20:32:31.845Z,98889.22
2023-01-28T20:34:58.409Z,98896.22
2023-01-28T20:37:24.927Z,98896.22
2023-01-28T20:39:52.099Z,98901.31
2023-01-28T20:42:18.593Z,98897.25
2023-01-28T20:44:45.150Z,98911.25
2023-01-28T20:47:11.714Z,98911.09
2023-01-28T20:49:38.198Z,98916.47
2023-01-28T20:52:05.600Z,98922.31
2023-01-28T20:54:32.846Z,98925.25
2023-01-28T20:56:59.315Z,98905.78
2023-01-28T20:59:25.779Z,98919.34
2023-01-28T21:01:52.384Z,98886.47
2023-01-28T21:04:18.954Z,98911.72
2023-01-28T21:06:45.459Z,98928.19
2023-01-28T21:09:12.009Z,98926.41
2023-01-28T21:11:38.487Z,98930.47
2023-01-28T21:14:05.104Z,98938.88
2023-01-28T21:16:31.903Z,98940.56
2023-01-28T21:18:58.420Z,98944.34
2023-01-28T21:21:26.828Z,98941.19
2023-01-28T21:23:59.452Z,98936.19
2023-01-28T21:26:26.551Z,98932.50
2023-01-28T21:28:53.112Z,98931.09
2023-01-28T21:31:21.265Z,98930.72
2023-01-28T21:33:55.475Z,98930.09
2023-01-28T21:36:22.409Z,98916.47
2023-01-28T21:38:55.980Z,98932.41
2023-01-28T21:41:22.657Z,98923.94
2023-01-28T21:43:53.351Z,98937.56
2023-01-28T21:46:20.926Z,98934.25
2023-01-28T21:48:47.523Z,98935.03
2023-01-28T21:51:32.740Z,98937.88
2023-01-28T21:53:59.302Z,98943.88
2023-01-28T21:56:25.780Z,98939.50
2023-01-28T21:59:10.820Z,98937.09
2023-01-28T22:01:37.352Z,98948.09
2023-01-28T22:04:04.085Z,98944.66
2023-01-28T22:06:30.853Z,98940.78
2023-01-28T22:08:57.352Z,98942.34
2023-01-28T22:11:23.849Z,98937.88
2023-01-28T22:13:50.544Z,98937.25
2023-01-28T22:16:17.295Z,98938.94
2023-01-28T22:18:43.808Z,98928.16
2023-01-28T22:21:11.298Z,98939.09
2023-01-28T22:23:37.757Z,98942.78
2023-01-28T22:26:04.311Z,98937.38
2023-01-28T22:28:30.858Z,98934.94
2023-01-28T22:31:08.811Z,98938.63
2023-01-28T22:33:35.624Z,98943.75
2023-01-28T22:36:05.105Z,98940.91
2023-01-28T22:38:31.579Z,98929.94
2023-01-28T22:41:10.117Z,98932.47
2023-01-28T22:43:36.720Z,98931.47
2023-01-28T22:46:03.665Z,98944.47
2023-01-28T22:48:30.800Z,98926.38
2023-01-28T22:51:04.875Z,98938.00
2023-01-28T22:53:31.563Z,98937.69
2023-01-28T22:55:58.434Z,98932.06
2023-01-28T22:58:25.142Z,98936.44
2023-01-28T23:00:52.247Z,98925.97
2023-01-28T23:03:19.225Z,98928.59
2023-01-28T23:05:46.557Z,98942.28
2023-01-28T23:08:13.585Z,98928.28
2023-01-28T23:10:47.410Z,98930.38
2023-01-28T23:13:18.221Z,98923.19
2023-01-28T23:16:07.541Z,98930.88
2023-01-28T23:18:53.701Z,98918.75
2023-01-28T23:21:41.266Z,98933.63
2023-01-28T23:24:21.842Z,98938.88
2023-01-28T23:26:52.666Z,98937.59
2023-01-28T23:29:23.989Z,98931.44
2023-01-28T23:31:55.202Z,98949.19
2023-01-28T23:34:22.317Z,98959.78
2023-01-28T23:36:51.039Z,98972.09
2023-01-28T23:39:18.355Z,98975.53
2023-01-28T23:41:45.717Z,98968.97
2023-01-28T23:44:13.246Z,98969.13
2023-01-28T23:46:40.582Z,98968.19
2023-01-28T23:49:10.068Z,98967.41
2023-01-28T23:51:36.903Z,98925.47
2023-01-28T23:54:03.848Z,98955.25
2023-01-28T23:56:30.843Z,98959.44
2023-01-28T23:58:58.002Z,98956.81
